Time;durP1;ratioP1;P1;durP2;ratioP2;P2;SDS_P1;SDS_P2;PMS_P1;PMS_P2;Temp;Humidity;BMP_temperature;BMP_pressure;BME280_temperature;BME280_humidity;BME280_pressure;Samples;Min_cycle;Max_cycle;Signal;HPM_P1;HPM_P2
2023/07/23 00:00:35;;;;;;;11.80;10.80;;;;;;;;;;5046091;28;20036;-72
2023/07/23 00:03:02;;;;;;;11.15;10.15;;;;;;;;;;5044755;28;20033;-72
2023/07/23 00:05:28;;;;;;;10.95;10.05;;;;;;;;;;5044502;28;20112;-72
2023/07/23 00:07:56;;;;;;;11.20;10.30;;;;;;;;;;5045976;28;20037;-72
2023/07/23 00:10:22;;;;;;;11.88;10.65;;;;;;;;;;5044149;28;20039;-73
2023/07/23 00:12:47;;;;;;;11.50;10.50;;;;;;;;;;5045801;28;20849;-73
2023/07/23 00:15:13;;;;;;;11.68;10.68;;;;;;;;;;5045828;28;20062;-72
2023/07/23 00:17:40;;;;;;;11.57;10.48;;;;;;;;;;5045173;28;20047;-72
2023/07/23 00:20:10;;;;;;;11.63;10.23;;;;;;;;;;5043935;28;20060;-73
2023/07/23 00:22:36;;;;;;;11.43;10.32;;;;;;;;;;5045588;28;20037;-73
2023/07/23 00:25:03;;;;;;;11.40;10.27;;;;;;;;;;5045733;28;20037;-73
2023/07/23 00:27:28;;;;;;;13.38;9.98;;;;;;;;;;5045348;28;20083;-72
2023/07/23 00:29:54;;;;;;;11.35;10.45;;;;;;;;;;5042376;28;20029;-73
2023/07/23 00:32:19;;;;;;;11.18;10.27;;;;;;;;;;5043737;28;20072;-72
2023/07/23 00:34:45;;;;;;;11.43;10.50;;;;;;;;;;5043952;28;20091;-72
2023/07/23 00:37:10;;;;;;;10.93;10.00;;;;;;;;;;5042852;28;20118;-72
2023/07/23 00:39:36;;;;;;;10.80;9.90;;;;;;;;;;5043525;28;20063;-73
2023/07/23 00:42:02;;;;;;;10.90;9.88;;;;;;;;;;5045463;28;20021;-72
2023/07/23 00:44:28;;;;;;;12.13;10.43;;;;;;;;;;5043817;28;20464;-72
2023/07/23 00:46:56;;;;;;;12.07;10.88;;;;;;;;;;5042946;28;20037;-73
2023/07/23 00:49:22;;;;;;;11.35;10.45;;;;;;;;;;5044630;28;20040;-72
2023/07/23 00:51:48;;;;;;;11.60;10.57;;;;;;;;;;5043614;28;20032;-71
2023/07/23 00:54:13;;;;;;;11.00;10.15;;;;;;;;;;5043095;28;20087;-71
2023/07/23 00:56:42;;;;;;;11.93;10.93;;;;;;;;;;5045469;28;20123;-72
2023/07/23 00:59:08;;;;;;;11.40;10.48;;;;;;;;;;5043392;28;20043;-72
2023/07/23 01:01:34;;;;;;;11.65;10.65;;;;;;;;;;5043173;28;20032;-72
2023/07/23 01:03:59;;;;;;;11.82;10.80;;;;;;;;;;5040974;28;20112;-71
2023/07/23 01:06:27;;;;;;;11.23;10.07;;;;;;;;;;5041828;28;20037;-71
2023/07/23 01:08:55;;;;;;;11.25;10.20;;;;;;;;;;5042963;28;20029;-71
2023/07/23 01:11:25;;;;;;;10.90;10.10;;;;;;;;;;5043338;28;20044;-71
2023/07/23 01:13:51;;;;;;;11.70;10.70;;;;;;;;;;5042879;28;20592;-71
2023/07/23 01:16:18;;;;;;;11.40;10.40;;;;;;;;;;5043478;28;20123;-71
2023/07/23 01:18:44;;;;;;;11.10;10.20;;;;;;;;;;5043058;28;20512;-71
2023/07/23 01:21:10;;;;;;;12.68;10.60;;;;;;;;;;5039446;28;20047;-71
2023/07/23 01:23:36;;;;;;;10.80;10.00;;;;;;;;;;5042859;28;20032;-71
2023/07/23 01:26:03;;;;;;;10.80;9.90;;;;;;;;;;5044473;28;20543;-71
2023/07/23 01:28:29;;;;;;;11.18;10.27;;;;;;;;;;5042267;28;20037;-71
2023/07/23 01:30:55;;;;;;;11.10;10.20;;;;;;;;;;5042607;28;20033;-74
2023/07/23 01:33:22;;;;;;;11.30;10.30;;;;;;;;;;5044420;28;20040;-72
2023/07/23 01:35:52;;;;;;;10.82;9.90;;;;;;;;;;5043657;28;20111;-72
2023/07/23 01:38:18;;;;;;;10.77;9.88;;;;;;;;;;5041653;28;20064;-71
2023/07/23 01:40:44;;;;;;;11.18;10.27;;;;;;;;;;5043310;28;20061;-71
2023/07/23 01:43:09;;;;;;;11.05;10.10;;;;;;;;;;5043863;28;20036;-72
2023/07/23 01:45:35;;;;;;;11.07;10.02;;;;;;;;;;5047522;28;20107;-71
2023/07/23 01:48:01;;;;;;;11.05;10.10;;;;;;;;;;5046909;28;20032;-72
2023/07/23 01:50:26;;;;;;;10.82;9.93;;;;;;;;;;5046844;28;20049;-72
2023/07/23 01:52:52;;;;;;;10.93;9.93;;;;;;;;;;5047198;28;20119;-72
2023/07/23 01:55:17;;;;;;;10.63;9.75;;;;;;;;;;5047151;28;20037;-72
2023/07/23 01:57:44;;;;;;;11.07;10.07;;;;;;;;;;5048918;28;20043;-72
2023/07/23 02:00:10;;;;;;;11.15;10.23;;;;;;;;;;5047006;28;20028;-71
2023/07/23 02:02:38;;;;;;;11.15;10.10;;;;;;;;;;5048178;28;20043;-72
2023/07/23 02:05:04;;;;;;;10.30;9.48;;;;;;;;;;5045643;28;20041;-72
2023/07/23 02:07:30;;;;;;;11.32;10.38;;;;;;;;;;5046753;28;20072;-73
2023/07/23 02:09:56;;;;;;;11.13;10.23;;;;;;;;;;5047658;28;20241;-72
2023/07/23 02:12:21;;;;;;;10.93;10.02;;;;;;;;;;5057767;28;20037;-72
2023/07/23 02:14:47;;;;;;;11.10;9.98;;;;;;;;;;5048057;28;20053;-72
2023/07/23 02:17:12;;;;;;;11.07;10.07;;;;;;;;;;5046918;28;20675;-72
2023/07/23 02:19:41;;;;;;;10.90;10.02;;;;;;;;;;5045671;28;20435;-72
2023/07/23 02:22:07;;;;;;;10.30;9.50;;;;;;;;;;5046321;28;20028;-72
2023/07/23 02:24:32;;;;;;;10.32;9.52;;;;;;;;;;5047811;28;20041;-72
2023/07/23 02:26:58;;;;;;;11.25;10.20;;;;;;;;;;5044136;28;20036;-72
2023/07/23 02:29:24;;;;;;;10.98;10.07;;;;;;;;;;5046918;28;20039;-72
2023/07/23 02:31:49;;;;;;;10.95;9.95;;;;;;;;;;5045834;28;20064;-74
2023/07/23 02:34:15;;;;;;;11.50;10.25;;;;;;;;;;5043850;28;20044;-72
2023/07/23 02:36:40;;;;;;;11.93;10.65;;;;;;;;;;5038272;28;20436;-71
2023/07/23 02:39:06;;;;;;;11.07;10.18;;;;;;;;;;5045211;28;20032;-72
2023/07/23 02:41:32;;;;;;;10.93;10.13;;;;;;;;;;5043285;28;20032;-72
2023/07/23 02:43:57;;;;;;;11.20;10.30;;;;;;;;;;5045614;28;20033;-72
2023/07/23 02:46:23;;;;;;;11.68;10.57;;;;;;;;;;5044042;28;20037;-72
2023/07/23 02:48:49;;;;;;;11.75;10.63;;;;;;;;;;5046011;28;20035;-72
2023/07/23 02:51:14;;;;;;;11.15;10.27;;;;;;;;;;5042654;28;20037;-72
2023/07/23 02:53:40;;;;;;;11.65;10.65;;;;;;;;;;5043920;28;20029;-72
2023/07/23 02:56:06;;;;;;;11.32;10.32;;;;;;;;;;5056402;28;20028;-72
2023/07/23 02:58:31;;;;;;;11.43;10.43;;;;;;;;;;5045296;28;20037;-72
2023/07/23 03:00:57;;;;;;;11.23;10.30;;;;;;;;;;5045678;28;20071;-72
2023/07/23 03:03:24;;;;;;;11.45;10.27;;;;;;;;;;5045882;28;20140;-72
2023/07/23 03:05:50;;;;;;;11.55;10.40;;;;;;;;;;5046153;28;20052;-72
2023/07/23 03:08:15;;;;;;;10.77;9.98;;;;;;;;;;5045323;28;20075;-74
2023/07/23 03:10:41;;;;;;;11.15;10.25;;;;;;;;;;5040345;28;20064;-72
2023/07/23 03:13:07;;;;;;;10.93;9.93;;;;;;;;;;5042615;28;20140;-72
2023/07/23 03:15:34;;;;;;;11.35;10.45;;;;;;;;;;5058494;28;20120;-72
2023/07/23 03:18:03;;;;;;;11.30;10.40;;;;;;;;;;5044045;28;20029;-72
2023/07/23 03:20:28;;;;;;;10.95;10.15;;;;;;;;;;5046293;28;20036;-72
2023/07/23 03:22:54;;;;;;;14.27;10.27;;;;;;;;;;5039253;28;20037;-72
2023/07/23 03:25:20;;;;;;;10.95;10.05;;;;;;;;;;5041296;28;20051;-72
2023/07/23 03:27:46;;;;;;;11.05;10.18;;;;;;;;;;5044965;28;20043;-71
2023/07/23 03:30:12;;;;;;;10.90;9.93;;;;;;;;;;5042983;28;20060;-71
2023/07/23 03:32:38;;;;;;;10.57;9.73;;;;;;;;;;5045743;28;20071;-71
2023/07/23 03:35:04;;;;;;;10.73;9.80;;;;;;;;;;5037463;28;20095;-71
2023/07/23 03:37:29;;;;;;;11.20;10.10;;;;;;;;;;5058372;28;20045;-71
2023/07/23 03:39:55;;;;;;;10.77;9.98;;;;;;;;;;5041888;28;20405;-71
2023/07/23 03:42:21;;;;;;;10.18;9.25;;;;;;;;;;5043580;28;20120;-71
2023/07/23 03:44:47;;;;;;;10.40;9.70;;;;;;;;;;5045891;28;20558;-72
2023/07/23 03:47:17;;;;;;;11.57;10.48;;;;;;;;;;5045015;28;20803;-71
2023/07/23 03:49:44;;;;;;;10.55;9.63;;;;;;;;;;5038733;28;20042;-72
2023/07/23 03:52:09;;;;;;;12.00;10.95;;;;;;;;;;5044562;28;20029;-72
2023/07/23 03:54:35;;;;;;;12.40;9.93;;;;;;;;;;5043632;28;20025;-71
2023/07/23 03:57:01;;;;;;;11.23;10.18;;;;;;;;;;5056546;28;20035;-71
2023/07/23 03:59:36;;;;;;;11.40;10.30;;;;;;;;;;5044664;28;20037;-72
2023/07/23 04:02:02;;;;;;;11.52;10.45;;;;;;;;;;5042362;28;20049;-72
2023/07/23 04:04:28;;;;;;;11.38;10.27;;;;;;;;;;5043687;28;20029;-71
2023/07/23 04:06:54;;;;;;;12.00;11.00;;;;;;;;;;5043131;28;20085;-71
2023/07/23 04:09:20;;;;;;;12.10;11.10;;;;;;;;;;5041875;28;20049;-72
2023/07/23 04:11:45;;;;;;;11.45;10.55;;;;;;;;;;5044301;28;20076;-72
2023/07/23 04:14:11;;;;;;;11.77;10.77;;;;;;;;;;5044617;28;20063;-72
2023/07/23 04:16:37;;;;;;;11.70;10.45;;;;;;;;;;5045723;28;20476;-71
2023/07/23 04:19:02;;;;;;;12.05;10.82;;;;;;;;;;5024682;28;20041;-71
2023/07/23 04:21:28;;;;;;;11.73;10.73;;;;;;;;;;5043046;28;20079;-71
2023/07/23 04:24:02;;;;;;;11.93;10.80;;;;;;;;;;5042843;28;20090;-71
2023/07/23 04:26:29;;;;;;;11.77;10.88;;;;;;;;;;5044337;28;20051;-71
2023/07/23 04:28:54;;;;;;;11.80;10.57;;;;;;;;;;5041193;28;20033;-71
2023/07/23 04:31:20;;;;;;;10.95;10.18;;;;;;;;;;5043642;28;20553;-72
2023/07/23 04:33:46;;;;;;;11.23;10.40;;;;;;;;;;5039914;28;20038;-71
2023/07/23 04:36:13;;;;;;;10.93;10.13;;;;;;;;;;5038213;28;20060;-71
2023/07/23 04:38:40;;;;;;;11.10;10.20;;;;;;;;;;5041452;28;20029;-72
2023/07/23 04:41:07;;;;;;;10.88;10.07;;;;;;;;;;5042764;28;20059;-71
2023/07/23 04:43:34;;;;;;;10.88;10.07;;;;;;;;;;5042914;28;20083;-72
2023/07/23 04:46:00;;;;;;;10.63;9.65;;;;;;;;;;5035408;28;20037;-72
2023/07/23 04:48:25;;;;;;;10.90;9.93;;;;;;;;;;5044381;28;20040;-72
2023/07/23 04:50:55;;;;;;;10.45;9.65;;;;;;;;;;5044944;28;20032;-71
2023/07/23 04:53:23;;;;;;;10.70;9.80;;;;;;;;;;5045075;28;20037;-71
2023/07/23 04:55:56;;;;;;;10.75;9.90;;;;;;;;;;5042217;28;20032;-72
2023/07/23 04:58:23;;;;;;;11.00;10.10;;;;;;;;;;5044829;28;20041;-72
2023/07/23 05:00:49;;;;;;;11.40;10.45;;;;;;;;;;5044500;28;20063;-72
2023/07/23 05:03:15;;;;;;;10.63;9.82;;;;;;;;;;5043327;28;20068;-72
2023/07/23 05:05:49;;;;;;;10.82;10.02;;;;;;;;;;5044845;28;20029;-72
2023/07/23 05:08:15;;;;;;;10.80;10.00;;;;;;;;;;5044824;28;20098;-72
2023/07/23 05:10:41;;;;;;;11.25;10.18;;;;;;;;;;5044619;28;20043;-72
2023/07/23 05:13:06;;;;;;;11.20;10.30;;;;;;;;;;5043637;28;20040;-72
2023/07/23 05:15:32;;;;;;;10.80;10.00;;;;;;;;;;5044700;28;20024;-72
2023/07/23 05:17:57;;;;;;;10.93;10.10;;;;;;;;;;5044650;28;20040;-71
2023/07/23 05:20:23;;;;;;;11.35;10.38;;;;;;;;;;5044067;28;20059;-71
2023/07/23 05:22:49;;;;;;;10.93;9.85;;;;;;;;;;5042373;28;20048;-71
2023/07/23 05:25:15;;;;;;;11.15;10.05;;;;;;;;;;5044416;28;20059;-71
2023/07/23 05:27:41;;;;;;;10.52;9.63;;;;;;;;;;5044652;28;20045;-71
2023/07/23 05:30:06;;;;;;;10.27;9.48;;;;;;;;;;5058282;28;20515;-72
2023/07/23 05:32:32;;;;;;;10.38;9.48;;;;;;;;;;5041409;28;20033;-71
2023/07/23 05:34:58;;;;;;;10.95;9.88;;;;;;;;;;5044968;28;20460;-71
2023/07/23 05:37:24;;;;;;;10.60;9.63;;;;;;;;;;5045402;28;20455;-71
2023/07/23 05:39:53;;;;;;;9.75;8.95;;;;;;;;;;5041711;28;20044;-72
2023/07/23 05:42:19;;;;;;;10.80;9.97;;;;;;;;;;5041958;28;20395;-72
2023/07/23 05:44:45;;;;;;;9.85;9.07;;;;;;;;;;5042377;28;20094;-71
2023/07/23 05:47:10;;;;;;;9.88;9.02;;;;;;;;;;5044120;28;20029;-72
2023/07/23 05:49:36;;;;;;;9.93;9.00;;;;;;;;;;5043688;28;20040;-72
2023/07/23 05:52:02;;;;;;;10.35;9.52;;;;;;;;;;5041331;28;20668;-72
2023/07/23 05:54:28;;;;;;;10.27;9.02;;;;;;;;;;5044399;28;20044;-72
2023/07/23 05:56:53;;;;;;;9.88;9.15;;;;;;;;;;5044497;28;20033;-72
2023/07/23 05:59:19;;;;;;;9.52;8.82;;;;;;;;;;5040664;28;20037;-72
2023/07/23 06:01:45;;;;;;;9.18;8.48;;;;;;;;;;5043681;28;20068;-72
2023/07/23 06:04:10;;;;;;;9.13;8.32;;;;;;;;;;5044484;28;20443;-72
2023/07/23 06:06:36;;;;;;;9.07;8.48;;;;;;;;;;5044147;28;20108;-72
2023/07/23 06:09:03;;;;;;;9.68;8.75;;;;;;;;;;5042653;28;20158;-72
2023/07/23 06:11:29;;;;;;;9.93;9.02;;;;;;;;;;5043750;28;20048;-72
2023/07/23 06:13:55;;;;;;;9.15;8.35;;;;;;;;;;5043408;28;20055;-72
2023/07/23 06:16:21;;;;;;;9.77;9.07;;;;;;;;;;5041523;28;20037;-72
2023/07/23 06:18:47;;;;;;;9.15;8.45;;;;;;;;;;5043293;28;20029;-72
2023/07/23 06:21:12;;;;;;;11.88;8.73;;;;;;;;;;5044058;28;20033;-73
2023/07/23 06:23:38;;;;;;;9.07;8.25;;;;;;;;;;5043825;28;20075;-72
2023/07/23 06:26:03;;;;;;;8.43;7.53;;;;;;;;;;5042182;28;20043;-72
2023/07/23 06:28:31;;;;;;;8.13;7.35;;;;;;;;;;5043669;28;20047;-72
2023/07/23 06:30:57;;;;;;;8.15;7.45;;;;;;;;;;5045227;28;20090;-72
2023/07/23 06:33:22;;;;;;;8.25;7.55;;;;;;;;;;5045532;28;20407;-72
2023/07/23 06:35:48;;;;;;;9.15;8.20;;;;;;;;;;5047270;28;20064;-72
2023/07/23 06:38:15;;;;;;;8.70;8.00;;;;;;;;;;5047422;28;20153;-72
2023/07/23 06:40:48;;;;;;;9.00;8.30;;;;;;;;;;5047695;28;20024;-72
2023/07/23 06:43:14;;;;;;;8.60;7.90;;;;;;;;;;5043251;28;20064;-72
2023/07/23 06:45:40;;;;;;;9.10;8.20;;;;;;;;;;5047373;28;20107;-72
2023/07/23 06:48:06;;;;;;;8.20;7.50;;;;;;;;;;5046851;28;20119;-72
2023/07/23 06:50:31;;;;;;;8.23;7.63;;;;;;;;;;5043522;28;20045;-72
2023/07/23 06:52:58;;;;;;;8.25;7.65;;;;;;;;;;5047065;28;20110;-72
2023/07/23 06:55:24;;;;;;;8.52;7.82;;;;;;;;;;5047023;28;20037;-72
2023/07/23 06:57:49;;;;;;;7.82;7.22;;;;;;;;;;5046946;28;20075;-72
2023/07/23 07:00:15;;;;;;;7.47;6.90;;;;;;;;;;5044885;28;20112;-72
2023/07/23 07:02:42;;;;;;;7.63;7.10;;;;;;;;;;5046917;28;20103;-72
2023/07/23 07:05:08;;;;;;;7.88;7.15;;;;;;;;;;5046556;28;20115;-72
2023/07/23 07:07:35;;;;;;;7.88;7.30;;;;;;;;;;5046916;28;20037;-72
2023/07/23 07:10:02;;;;;;;8.05;7.35;;;;;;;;;;5044996;28;20091;-72
2023/07/23 07:12:28;;;;;;;8.18;7.38;;;;;;;;;;5046253;28;20037;-72
2023/07/23 07:14:54;;;;;;;7.40;6.90;;;;;;;;;;5046458;28;20036;-73
2023/07/23 07:17:20;;;;;;;7.00;6.50;;;;;;;;;;5045218;28;20032;-72
2023/07/23 07:19:46;;;;;;;7.10;6.50;;;;;;;;;;5047202;28;20033;-72
2023/07/23 07:22:11;;;;;;;7.50;6.88;;;;;;;;;;5047333;28;20400;-72
2023/07/23 07:24:37;;;;;;;7.55;7.05;;;;;;;;;;5046711;28;20416;-73
2023/07/23 07:27:08;;;;;;;7.35;6.82;;;;;;;;;;5043932;28;20847;-73
2023/07/23 07:29:34;;;;;;;7.15;6.55;;;;;;;;;;5046363;28;20061;-73
2023/07/23 07:31:59;;;;;;;7.55;6.85;;;;;;;;;;5046575;28;20087;-72
2023/07/23 07:34:25;;;;;;;7.20;6.60;;;;;;;;;;5044881;28;20056;-73
2023/07/23 07:36:50;;;;;;;7.00;6.40;;;;;;;;;;5046321;28;20036;-73
2023/07/23 07:39:16;;;;;;;6.85;6.35;;;;;;;;;;5044794;28;20037;-72
2023/07/23 07:41:42;;;;;;;8.43;6.20;;;;;;;;;;5045986;28;20127;-73
2023/07/23 07:44:08;;;;;;;7.22;6.63;;;;;;;;;;5044959;28;20052;-73
2023/07/23 07:46:33;;;;;;;6.63;6.13;;;;;;;;;;5046272;28;20837;-72
2023/07/23 07:48:59;;;;;;;6.72;6.22;;;;;;;;;;5045854;28;20041;-73
2023/07/23 07:51:25;;;;;;;6.90;6.30;;;;;;;;;;5045773;28;20059;-73
2023/07/23 07:53:50;;;;;;;6.47;5.90;;;;;;;;;;5037767;28;20095;-73
2023/07/23 07:56:17;;;;;;;6.55;6.05;;;;;;;;;;5042867;28;20116;-73
2023/07/23 07:58:45;;;;;;;7.25;6.75;;;;;;;;;;5043454;28;20037;-73
2023/07/23 08:01:11;;;;;;;6.63;6.03;;;;;;;;;;5042719;28;20855;-72
2023/07/23 08:03:37;;;;;;;7.28;6.63;;;;;;;;;;5044377;28;20036;-72
2023/07/23 08:06:03;;;;;;;7.10;6.57;;;;;;;;;;5044413;28;20095;-72
2023/07/23 08:08:32;;;;;;;6.80;6.28;;;;;;;;;;5043472;28;20462;-73
2023/07/23 08:10:59;;;;;;;;;;;;;;;;;;5043083;28;20048;-72
2023/07/23 08:13:24;;;;;;;6.95;6.43;;;;;;;;;;5043799;28;19917;-72
2023/07/23 08:15:51;;;;;;;7.07;6.57;;;;;;;;;;5043827;28;20056;-73
2023/07/23 08:18:17;;;;;;;6.95;6.45;;;;;;;;;;5043554;28;20094;-72
2023/07/23 08:20:43;;;;;;;8.18;6.88;;;;;;;;;;5041616;28;20045;-72
2023/07/23 08:23:09;;;;;;;6.47;6.07;;;;;;;;;;5042597;28;20094;-72
2023/07/23 08:25:37;;;;;;;6.93;6.43;;;;;;;;;;5042567;28;20612;-72
2023/07/23 08:28:03;;;;;;;7.25;6.75;;;;;;;;;;5041445;28;20041;-72
2023/07/23 08:30:30;;;;;;;7.18;6.65;;;;;;;;;;5043446;28;20666;-72
2023/07/23 08:32:58;;;;;;;6.70;6.20;;;;;;;;;;5040574;28;20673;-73
2023/07/23 08:35:25;;;;;;;7.50;6.90;;;;;;;;;;5041759;28;20565;-73
2023/07/23 08:37:52;;;;;;;7.55;6.95;;;;;;;;;;5037958;28;20040;-73
2023/07/23 08:40:19;;;;;;;7.45;6.90;;;;;;;;;;5041797;28;20076;-73
2023/07/23 08:42:51;;;;;;;7.38;6.78;;;;;;;;;;5042244;28;20044;-73
2023/07/23 08:45:35;;;;;;;6.90;6.30;;;;;;;;;;5039735;28;20062;-73
2023/07/23 08:48:21;;;;;;;7.22;6.63;;;;;;;;;;5039174;28;20033;-73
2023/07/23 08:50:51;;;;;;;7.70;7.20;;;;;;;;;;5041204;28;20822;-73
2023/07/23 08:53:18;;;;;;;7.50;6.93;;;;;;;;;;5021870;28;20041;-73
2023/07/23 08:55:45;;;;;;;7.32;6.72;;;;;;;;;;5040997;28;20028;-73
2023/07/23 08:58:19;;;;;;;7.60;7.03;;;;;;;;;;5040126;28;20056;-73
2023/07/23 09:00:46;;;;;;;7.50;7.03;;;;;;;;;;5041404;28;20063;-73
2023/07/23 09:03:14;;;;;;;7.85;7.25;;;;;;;;;;5040058;28;20032;-73
2023/07/23 09:05:40;;;;;;;8.20;6.40;;;;;;;;;;5041507;28;20116;-73
2023/07/23 09:08:07;;;;;;;7.40;6.80;;;;;;;;;;5041229;28;20044;-73
2023/07/23 09:10:32;;;;;;;7.28;6.63;;;;;;;;;;5041678;28;20033;-73
2023/07/23 09:12:58;;;;;;;11.48;6.38;;;;;;;;;;5039115;28;20045;-73
2023/07/23 09:15:24;;;;;;;6.28;5.78;;;;;;;;;;5041671;28;20048;-73
2023/07/23 09:17:50;;;;;;;6.32;5.93;;;;;;;;;;5038267;28;20124;-73
2023/07/23 09:20:18;;;;;;;7.18;6.68;;;;;;;;;;5041182;28;20049;-73
2023/07/23 09:22:45;;;;;;;7.03;6.53;;;;;;;;;;5023918;28;20044;-73
2023/07/23 09:25:11;;;;;;;7.53;6.90;;;;;;;;;;5038357;28;20358;-73
2023/07/23 09:27:37;;;;;;;7.00;6.40;;;;;;;;;;5041376;28;20488;-72
2023/07/23 09:30:04;;;;;;;6.78;6.18;;;;;;;;;;5040157;28;20033;-72
2023/07/23 09:32:30;;;;;;;6.82;6.25;;;;;;;;;;5041191;28;20677;-73
2023/07/23 09:34:57;;;;;;;7.20;6.65;;;;;;;;;;5041261;28;20033;-73
2023/07/23 09:37:26;;;;;;;7.03;6.53;;;;;;;;;;5039056;28;20036;-73
2023/07/23 09:39:56;;;;;;;;;;;;;;;;;;5039023;28;20037;-73
2023/07/23 09:42:25;;;;;;;6.80;6.28;;;;;;;;;;5040947;28;19982;-72
2023/07/23 09:44:51;;;;;;;;;;;;;;;;;;5041565;28;20052;-73
2023/07/23 09:47:23;;;;;;;6.85;6.38;;;;;;;;;;5039098;28;19916;-73
2023/07/23 09:49:53;;;;;;;6.65;6.25;;;;;;;;;;5038559;28;20092;-73
2023/07/23 09:52:22;;;;;;;7.63;7.03;;;;;;;;;;5041385;28;20037;-73
2023/07/23 09:54:48;;;;;;;7.40;6.55;;;;;;;;;;5039521;28;20409;-73
2023/07/23 09:57:15;;;;;;;6.70;6.30;;;;;;;;;;5041339;28;20689;-73
2023/07/23 09:59:41;;;;;;;6.57;6.18;;;;;;;;;;5041311;28;20118;-73
2023/07/23 10:02:08;;;;;;;7.38;6.60;;;;;;;;;;5041459;28;20135;-73
2023/07/23 10:04:35;;;;;;;7.47;6.97;;;;;;;;;;5038735;28;20033;-73
2023/07/23 10:07:02;;;;;;;7.93;7.40;;;;;;;;;;5042956;28;20668;-74
2023/07/23 10:09:28;;;;;;;7.60;7.10;;;;;;;;;;5044695;28;20029;-73
2023/07/23 10:11:54;;;;;;;7.80;7.20;;;;;;;;;;5044932;28;20040;-73
2023/07/23 10:14:21;;;;;;;8.13;7.07;;;;;;;;;;5042682;28;20048;-73
2023/07/23 10:16:48;;;;;;;7.78;7.20;;;;;;;;;;5044861;28;20760;-73
2023/07/23 10:19:18;;;;;;;8.02;7.38;;;;;;;;;;5044634;28;20040;-73
2023/07/23 10:21:48;;;;;;;7.78;7.28;;;;;;;;;;5043170;28;20063;-72
2023/07/23 10:24:14;;;;;;;7.88;7.28;;;;;;;;;;5044858;28;20045;-72
2023/07/23 10:26:47;;;;;;;8.07;7.47;;;;;;;;;;5044592;28;20103;-72
2023/07/23 10:29:21;;;;;;;9.07;7.10;;;;;;;;;;5042261;28;20067;-73
2023/07/23 10:31:47;;;;;;;7.18;6.68;;;;;;;;;;5043937;28;20923;-73
2023/07/23 10:34:28;;;;;;;7.45;6.90;;;;;;;;;;5044819;28;20040;-75
2023/07/23 10:37:14;;;;;;;7.47;6.80;;;;;;;;;;5045389;28;20053;-73
2023/07/23 10:39:41;;;;;;;7.10;6.70;;;;;;;;;;5043584;28;20036;-73
2023/07/23 10:42:07;;;;;;;7.72;7.10;;;;;;;;;;5044634;28;20493;-73
2023/07/23 10:44:32;;;;;;;7.10;6.57;;;;;;;;;;5042529;28;20036;-74
2023/07/23 10:46:59;;;;;;;7.53;7.03;;;;;;;;;;5044025;28;20193;-73
2023/07/23 10:49:29;;;;;;;7.95;7.43;;;;;;;;;;5043990;28;20037;-73
2023/07/23 10:52:14;;;;;;;7.93;7.32;;;;;;;;;;5044187;28;20140;-73
2023/07/23 10:54:40;;;;;;;8.25;7.55;;;;;;;;;;5043428;28;20033;-73
2023/07/23 10:57:06;;;;;;;7.65;7.15;;;;;;;;;;5043841;28;20037;-73
2023/07/23 10:59:32;;;;;;;7.28;6.85;;;;;;;;;;5043956;28;20041;-73
2023/07/23 11:01:58;;;;;;;7.63;7.10;;;;;;;;;;5044330;28;20128;-73
2023/07/23 11:04:26;;;;;;;7.05;6.55;;;;;;;;;;5041988;28;20567;-73
2023/07/23 11:07:04;;;;;;;8.40;7.80;;;;;;;;;;5044789;28;20041;-73
2023/07/23 11:09:34;;;;;;;8.07;7.53;;;;;;;;;;5043316;28;20045;-73
2023/07/23 11:12:02;;;;;;;7.93;7.32;;;;;;;;;;5041270;28;20033;-73
2023/07/23 11:14:29;;;;;;;8.52;7.93;;;;;;;;;;5044336;28;20450;-73
2023/07/23 11:17:02;;;;;;;8.52;7.93;;;;;;;;;;5043614;28;20095;-73
2023/07/23 11:19:29;;;;;;;8.13;7.50;;;;;;;;;;5043703;28;20440;-73
2023/07/23 11:21:56;;;;;;;8.02;7.32;;;;;;;;;;5044378;28;20496;-73
2023/07/23 11:24:24;;;;;;;8.47;7.70;;;;;;;;;;5045535;28;20040;-73
2023/07/23 11:26:51;;;;;;;7.50;6.80;;;;;;;;;;5045219;28;20021;-73
2023/07/23 11:29:17;;;;;;;7.93;7.32;;;;;;;;;;5041992;28;20820;-73
2023/07/23 11:31:44;;;;;;;8.10;7.50;;;;;;;;;;5044832;28;20045;-73
2023/07/23 11:34:10;;;;;;;7.82;7.32;;;;;;;;;;5044122;28;20052;-73
2023/07/23 11:36:37;;;;;;;8.50;7.70;;;;;;;;;;5057450;28;20041;-73
2023/07/23 11:39:04;;;;;;;7.93;7.32;;;;;;;;;;5042166;28;20029;-74
2023/07/23 11:41:32;;;;;;;9.40;7.70;;;;;;;;;;5044611;28;20040;-74
2023/07/23 11:43:59;;;;;;;8.00;7.50;;;;;;;;;;5044533;28;20389;-73
2023/07/23 11:46:25;;;;;;;7.55;7.05;;;;;;;;;;5043040;28;20037;-73
2023/07/23 11:48:53;;;;;;;7.68;7.18;;;;;;;;;;5044356;28;20108;-74
2023/07/23 11:51:19;;;;;;;8.05;7.45;;;;;;;;;;5044022;28;20036;-74
2023/07/23 11:53:45;;;;;;;8.85;7.72;;;;;;;;;;5042413;28;20033;-73
2023/07/23 11:56:14;;;;;;;7.47;6.88;;;;;;;;;;5038587;28;20052;-73
2023/07/23 11:58:40;;;;;;;7.28;6.78;;;;;;;;;;5043854;28;20040;-74
2023/07/23 12:01:08;;;;;;;7.47;6.97;;;;;;;;;;5044163;28;20040;-74
2023/07/23 12:03:41;;;;;;;7.50;6.90;;;;;;;;;;5041163;28;20404;-73
2023/07/23 12:06:08;;;;;;;8.50;7.85;;;;;;;;;;5043690;28;20044;-73
2023/07/23 12:08:35;;;;;;;8.23;7.43;;;;;;;;;;5043587;28;20620;-74
2023/07/23 12:11:11;;;;;;;7.38;6.78;;;;;;;;;;5044333;28;20098;-74
2023/07/23 12:13:44;;;;;;;7.30;6.72;;;;;;;;;;5041968;28;20154;-73
2023/07/23 12:16:14;;;;;;;8.20;7.45;;;;;;;;;;5040299;28;20033;-73
2023/07/23 12:18:44;;;;;;;7.50;6.80;;;;;;;;;;5043396;28;20039;-74
2023/07/23 12:21:10;;;;;;;7.70;7.18;;;;;;;;;;5042559;28;20029;-73
2023/07/23 12:23:42;;;;;;;10.25;7.10;;;;;;;;;;5043637;28;20082;-73
2023/07/23 12:26:09;;;;;;;7.40;6.80;;;;;;;;;;5043698;28;20110;-74
2023/07/23 12:28:35;;;;;;;7.43;6.82;;;;;;;;;;5044307;28;20071;-73
2023/07/23 12:31:00;;;;;;;7.45;6.95;;;;;;;;;;5042716;28;20064;-74
2023/07/23 12:33:26;;;;;;;7.85;7.18;;;;;;;;;;5043985;28;20040;-74
2023/07/23 12:35:51;;;;;;;7.80;7.22;;;;;;;;;;5045266;28;20072;-74
2023/07/23 12:38:17;;;;;;;7.07;6.50;;;;;;;;;;5043256;28;20037;-74
2023/07/23 12:40:42;;;;;;;7.10;6.22;;;;;;;;;;5046211;28;20151;-74
2023/07/23 12:43:08;;;;;;;7.28;6.65;;;;;;;;;;5045409;28;20106;-73
2023/07/23 12:45:36;;;;;;;7.38;6.80;;;;;;;;;;5044855;28;20190;-74
2023/07/23 12:48:03;;;;;;;7.72;7.13;;;;;;;;;;5040640;28;20662;-74
2023/07/23 12:50:28;;;;;;;8.35;7.10;;;;;;;;;;5045509;28;20194;-74
2023/07/23 12:52:54;;;;;;;8.50;6.72;;;;;;;;;;5048836;28;20748;-74
2023/07/23 12:55:19;;;;;;;7.22;6.72;;;;;;;;;;5045861;28;20044;-74
2023/07/23 12:57:45;;;;;;;7.53;6.82;;;;;;;;;;5043557;28;20028;-74
2023/07/23 13:00:11;;;;;;;9.23;6.80;;;;;;;;;;5046220;28;20076;-74
2023/07/23 13:02:37;;;;;;;7.25;6.72;;;;;;;;;;5044981;28;20039;-73
2023/07/23 13:05:02;;;;;;;7.07;6.47;;;;;;;;;;5044737;28;20505;-73
2023/07/23 13:07:28;;;;;;;7.30;6.70;;;;;;;;;;5043225;28;20508;-74
2023/07/23 13:09:53;;;;;;;7.80;7.10;;;;;;;;;;5044540;28;20040;-74
2023/07/23 13:12:19;;;;;;;7.28;6.78;;;;;;;;;;5044490;28;20033;-74
2023/07/23 13:14:44;;;;;;;7.53;6.93;;;;;;;;;;5043382;28;20036;-74
2023/07/23 13:17:10;;;;;;;7.00;6.50;;;;;;;;;;5043515;28;20040;-73
2023/07/23 13:19:35;;;;;;;9.23;6.53;;;;;;;;;;5044621;28;20028;-73
2023/07/23 13:22:01;;;;;;;6.93;6.43;;;;;;;;;;5044435;28;20138;-73
2023/07/23 13:24:27;;;;;;;7.60;6.80;;;;;;;;;;5043337;28;20591;-74
2023/07/23 13:26:52;;;;;;;6.88;6.38;;;;;;;;;;5044570;28;20029;-74
2023/07/23 13:29:18;;;;;;;7.18;6.68;;;;;;;;;;5041739;28;20524;-74
2023/07/23 13:31:43;;;;;;;8.50;7.25;;;;;;;;;;5044554;28;20044;-73
2023/07/23 13:34:09;;;;;;;7.15;6.55;;;;;;;;;;5044326;28;20021;-74
2023/07/23 13:36:34;;;;;;;7.10;6.60;;;;;;;;;;5040198;28;20028;-74
2023/07/23 13:39:00;;;;;;;7.55;6.93;;;;;;;;;;5044042;28;20037;-74
2023/07/23 13:41:25;;;;;;;6.88;6.28;;;;;;;;;;5043741;28;20041;-74
2023/07/23 13:43:51;;;;;;;7.03;6.53;;;;;;;;;;5042623;28;20072;-74
2023/07/23 13:46:16;;;;;;;7.40;6.82;;;;;;;;;;5042206;28;20067;-74
2023/07/23 13:48:42;;;;;;;11.32;6.78;;;;;;;;;;5043687;28;20031;-74
2023/07/23 13:51:08;;;;;;;7.80;7.00;;;;;;;;;;5043844;28;20523;-74
2023/07/23 13:53:33;;;;;;;7.43;6.90;;;;;;;;;;5038988;28;20134;-74
2023/07/23 13:55:59;;;;;;;7.05;6.35;;;;;;;;;;5042696;28;20037;-74
2023/07/23 13:58:24;;;;;;;7.70;7.00;;;;;;;;;;5043533;28;20741;-74
2023/07/23 14:00:50;;;;;;;7.20;6.70;;;;;;;;;;5044170;28;20025;-74
2023/07/23 14:03:15;;;;;;;8.93;7.45;;;;;;;;;;5041056;28;20043;-74
2023/07/23 14:05:41;;;;;;;7.88;7.18;;;;;;;;;;5042000;28;20080;-74
2023/07/23 14:08:07;;;;;;;10.88;7.63;;;;;;;;;;5043468;28;20119;-74
2023/07/23 14:10:32;;;;;;;8.63;7.35;;;;;;;;;;5044052;28;20033;-75
2023/07/23 14:12:58;;;;;;;8.95;8.15;;;;;;;;;;5043707;28;20349;-74
2023/07/23 14:15:23;;;;;;;8.68;8.02;;;;;;;;;;5042389;28;20041;-75
2023/07/23 14:17:49;;;;;;;9.40;8.25;;;;;;;;;;5042719;28;20037;-75
2023/07/23 14:20:14;;;;;;;8.57;7.78;;;;;;;;;;5044154;28;20560;-75
2023/07/23 14:22:40;;;;;;;8.32;7.60;;;;;;;;;;5042588;28;20033;-75
2023/07/23 14:25:06;;;;;;;8.10;7.30;;;;;;;;;;5043561;28;20037;-75
2023/07/23 14:27:31;;;;;;;8.57;7.80;;;;;;;;;;5043637;28;20063;-74
2023/07/23 14:29:57;;;;;;;8.63;7.90;;;;;;;;;;5043475;28;20079;-75
2023/07/23 14:32:22;;;;;;;9.27;8.38;;;;;;;;;;5040502;28;20044;-75